createdAt,value
2019-05-14T00:00:24.350Z,0
2019-05-14T00:01:24.894Z,0
2019-05-14T00:02:24.462Z,0
2019-05-14T00:06:54.596Z,0
2019-05-14T00:07:55.013Z,0
2019-05-14T00:08:54.709Z,0
2019-05-14T00:09:54.623Z,0
2019-05-14T00:10:54.705Z,0
2019-05-14T00:11:53.935Z,0
2019-05-14T00:12:53.925Z,0
2019-05-14T00:13:54.856Z,0
2019-05-14T00:14:54.300Z,0
2019-05-14T00:15:54.697Z,0
2019-05-14T00:16:54.029Z,0
2019-05-14T00:17:54.750Z,0
2019-05-14T00:18:53.881Z,0
2019-05-14T00:20:10.653Z,0
2019-05-14T00:20:53.893Z,0
2019-05-14T00:21:54.067Z,0
2019-05-14T00:22:54.843Z,0
2019-05-14T00:23:54.093Z,0
2019-05-14T00:24:55.762Z,0
2019-05-14T00:25:54.988Z,0
2019-05-14T00:26:54.655Z,0
2019-05-14T00:27:54.579Z,0
2019-05-14T00:28:53.892Z,0
2019-05-14T00:29:54.464Z,0
2019-05-14T00:30:55.003Z,0
2019-05-14T00:31:54.622Z,0
2019-05-14T00:32:54.618Z,0
2019-05-14T00:33:53.923Z,0
2019-05-14T00:34:54.300Z,0
2019-05-14T00:35:54.183Z,0
2019-05-14T00:36:55.010Z,0
2019-05-14T00:37:54.981Z,0
2019-05-14T00:38:53.960Z,0
2019-05-14T00:39:54.755Z,0
2019-05-14T00:40:54.046Z,0
2019-05-14T00:41:53.894Z,0
2019-05-14T00:42:53.236Z,0
2019-05-14T00:43:54.394Z,0
2019-05-14T00:45:06.463Z,0
2019-05-14T00:45:53.734Z,0
2019-05-14T00:46:54.337Z,0
2019-05-14T00:47:55.050Z,0
2019-05-14T00:48:54.205Z,0
2019-05-14T00:49:54.740Z,0
2019-05-14T00:50:54.383Z,0
2019-05-14T00:51:54.617Z,0
2019-05-14T00:52:56.752Z,0
2019-05-14T00:53:54.275Z,0
2019-05-14T00:54:54.737Z,0
2019-05-14T00:55:55.608Z,0
2019-05-14T00:56:54.738Z,0
2019-05-14T00:57:54.862Z,0
2019-05-14T00:58:54.769Z,0
2019-05-14T01:00:57.303Z,0
2019-05-14T01:01:11.814Z,0
2019-05-14T01:02:11.585Z,0
2019-05-14T01:03:11.091Z,0
2019-05-14T01:04:11.734Z,0
2019-05-14T01:05:12.157Z,0
2019-05-14T01:06:11.431Z,0
2019-05-14T01:07:11.833Z,0
2019-05-14T01:08:11.973Z,0
2019-05-14T01:09:11.402Z,0
2019-05-14T01:10:11.559Z,0
2019-05-14T01:11:11.767Z,0
2019-05-14T01:12:12.111Z,0
2019-05-14T01:13:11.213Z,0
2019-05-14T01:14:12.163Z,0
2019-05-14T01:15:21.739Z,0
2019-05-14T01:16:11.972Z,0
2019-05-14T01:17:11.232Z,0
2019-05-14T01:18:11.330Z,0
2019-05-14T01:19:12.209Z,0
2019-05-14T01:20:12.291Z,0
2019-05-14T01:21:11.642Z,0
2019-05-14T01:22:12.346Z,0
2019-05-14T01:23:11.468Z,0
2019-05-14T01:24:12.378Z,0
2019-05-14T01:25:11.951Z,0
2019-05-14T01:26:11.466Z,0
2019-05-14T01:27:12.075Z,0
2019-05-14T01:28:11.249Z,0
2019-05-14T01:29:11.894Z,0
2019-05-14T01:30:12.418Z,0
2019-05-14T01:31:11.319Z,0
2019-05-14T01:32:11.561Z,0
2019-05-14T01:33:11.803Z,0
2019-05-14T01:34:11.148Z,0
2019-05-14T01:35:11.973Z,0
2019-05-14T01:36:12.175Z,0
2019-05-14T01:37:11.595Z,0
2019-05-14T01:38:11.454Z,0
2019-05-14T01:39:11.973Z,0
2019-05-14T01:40:11.490Z,0
2019-05-14T01:41:11.784Z,0
2019-05-14T01:42:12.385Z,0
2019-05-14T01:43:11.507Z,0
2019-05-14T01:44:11.878Z,0
2019-05-14T01:45:28.293Z,0
2019-05-14T01:46:12.114Z,0
2019-05-14T01:47:12.376Z,0
2019-05-14T01:48:11.623Z,0
2019-05-14T01:49:12.002Z,0
2019-05-14T01:50:11.479Z,0
2019-05-14T01:51:11.862Z,0
2019-05-14T01:52:11.174Z,0
2019-05-14T01:53:11.493Z,0
2019-05-14T01:54:11.902Z,0
2019-05-14T01:55:11.352Z,0
2019-05-14T01:56:11.946Z,0
2019-05-14T01:57:11.463Z,0
2019-05-14T01:58:11.466Z,0
2019-05-14T01:59:12.048Z,0
2019-05-14T02:00:11.423Z,0
2019-05-14T02:01:11.973Z,0
2019-05-14T02:02:11.541Z,0
2019-05-14T02:03:12.088Z,0
2019-05-14T02:04:11.591Z,0
2019-05-14T02:05:12.163Z,0
2019-05-14T02:06:11.824Z,0
2019-05-14T02:07:11.503Z,0
2019-05-14T02:08:12.096Z,0
2019-05-14T02:09:11.088Z,0
2019-05-14T02:10:11.581Z,0
2019-05-14T02:11:12.035Z,0
2019-05-14T02:12:11.612Z,0
2019-05-14T02:13:12.237Z,0
2019-05-14T02:14:11.584Z,0
2019-05-14T02:15:11.993Z,0
2019-05-14T02:16:12.966Z,0
2019-05-14T02:17:12.297Z,0
2019-05-14T02:18:11.116Z,0
2019-05-14T02:19:11.515Z,0
2019-05-14T02:20:12.322Z,0
2019-05-14T02:21:11.768Z,0
2019-05-14T02:22:11.251Z,0
2019-05-14T02:23:11.938Z,0
2019-05-14T02:24:11.292Z,0
2019-05-14T02:25:11.820Z,0
2019-05-14T02:26:11.382Z,0
2019-05-14T02:27:12.245Z,0
2019-05-14T02:28:11.530Z,0
2019-05-14T02:29:12.279Z,0
2019-05-14T02:30:10.394Z,0
2019-05-14T02:31:15.064Z,0
2019-05-14T02:32:13.264Z,0
2019-05-14T02:33:11.982Z,0
2019-05-14T02:34:12.913Z,0
2019-05-14T02:35:12.591Z,0
2019-05-14T02:36:13.086Z,0
2019-05-14T02:37:12.299Z,0
2019-05-14T02:38:13.019Z,0
2019-05-14T02:39:12.924Z,0
2019-05-14T02:40:12.567Z,0
2019-05-14T02:41:12.655Z,0
2019-05-14T02:42:12.245Z,0
2019-05-14T02:43:12.729Z,0
2019-05-14T02:44:13.203Z,0
2019-05-14T02:45:11.618Z,0
2019-05-14T02:46:24.810Z,0
2019-05-14T02:47:12.737Z,0
2019-05-14T02:48:12.229Z,0
2019-05-14T02:49:13.525Z,0
2019-05-14T02:50:12.761Z,0
2019-05-14T02:51:13.206Z,0
2019-05-14T02:52:12.775Z,0
2019-05-14T02:53:12.974Z,0
2019-05-14T02:54:12.703Z,0
2019-05-14T02:55:12.506Z,0
2019-05-14T02:56:13.115Z,0
2019-05-14T02:57:13.208Z,0
2019-05-14T02:58:12.667Z,0
2019-05-14T02:59:15.064Z,0
2019-05-14T03:00:12.963Z,0
2019-05-14T03:01:12.479Z,0
2019-05-14T03:02:12.855Z,0
2019-05-14T03:03:12.561Z,0
2019-05-14T03:04:11.844Z,0
2019-05-14T03:05:12.545Z,0
2019-05-14T03:06:12.125Z,0
2019-05-14T03:07:14.010Z,0
2019-05-14T03:08:11.692Z,0
2019-05-14T03:09:12.489Z,0
2019-05-14T03:10:12.780Z,0
2019-05-14T03:11:12.138Z,0
2019-05-14T03:12:12.916Z,0
2019-05-14T03:13:12.557Z,4
2019-05-14T03:14:11.690Z,0
2019-05-14T03:15:12.387Z,0
2019-05-14T03:16:43.078Z,0
2019-05-14T03:17:13.324Z,4
2019-05-14T03:18:14.451Z,4
2019-05-14T03:23:25.837Z,4
2019-05-14T03:24:09.088Z,4
2019-05-14T03:25:05.117Z,4
2019-05-14T03:26:09.314Z,4
2019-05-14T03:27:04.495Z,4
2019-05-14T03:28:05.243Z,4
2019-05-14T03:29:05.415Z,4
2019-05-14T03:30:11.463Z,8
2019-05-14T03:31:12.584Z,4
2019-05-14T03:32:14.995Z,8
2019-05-14T03:33:13.098Z,8
2019-05-14T03:34:13.284Z,12
2019-05-14T03:35:15.811Z,8
2019-05-14T03:36:34.325Z,8
2019-05-14T03:37:15.089Z,12
2019-05-14T03:38:09.206Z,12
2019-05-14T03:39:04.642Z,12
2019-05-14T03:40:04.730Z,12
2019-05-14T03:41:05.547Z,16
2019-05-14T03:42:09.290Z,16
2019-05-14T03:43:05.174Z,20
2019-05-14T03:44:05.816Z,16
2019-05-14T03:45:05.176Z,20
2019-05-14T03:46:09.645Z,20
2019-05-14T03:47:15.253Z,24
2019-05-14T03:48:09.974Z,24
2019-05-14T03:49:05.401Z,24
2019-05-14T03:50:09.994Z,24
2019-05-14T03:51:08.845Z,28
2019-05-14T03:52:09.300Z,28
2019-05-14T03:53:04.931Z,32
2019-05-14T03:57:03.119Z,40
2019-05-14T03:58:02.428Z,40
2019-05-14T03:59:02.718Z,44
2019-05-14T04:00:02.579Z,44
2019-05-14T04:01:03.263Z,48
2019-05-14T04:02:02.371Z,48
2019-05-14T04:03:03.498Z,52
2019-05-14T04:04:02.000Z,56
2019-05-14T04:05:02.742Z,56
2019-05-14T04:06:02.143Z,56
2019-05-14T04:07:02.811Z,60
2019-05-14T04:08:02.918Z,64
2019-05-14T04:09:03.326Z,64
2019-05-14T04:10:02.511Z,64
2019-05-14T04:11:04.485Z,64
2019-05-14T04:12:02.131Z,68
2019-05-14T04:13:02.553Z,68
2019-05-14T04:14:02.864Z,72
2019-05-14T04:15:02.652Z,72
2019-05-14T04:16:02.858Z,76
2019-05-14T04:17:36.766Z,80
2019-05-14T04:27:23.174Z,100
2019-05-14T04:28:19.369Z,100
2019-05-14T04:29:19.588Z,104
2019-05-14T04:30:24.415Z,104
2019-05-14T04:31:19.063Z,112
2019-05-14T04:32:19.942Z,112
2019-05-14T04:33:21.521Z,116
2019-05-14T04:34:22.047Z,116
2019-05-14T04:35:20.077Z,116
2019-05-14T04:36:19.435Z,120
2019-05-14T04:37:20.003Z,120
2019-05-14T04:38:20.156Z,124
2019-05-14T04:39:19.402Z,128
2019-05-14T04:40:18.844Z,132
2019-05-14T04:41:22.066Z,132
2019-05-14T04:42:20.260Z,136
2019-05-14T04:43:21.778Z,140
2019-05-14T04:44:19.151Z,140
2019-05-14T04:45:22.247Z,148
2019-05-14T04:46:22.394Z,148
2019-05-14T04:47:44.769Z,156
2019-05-14T04:48:50.022Z,160
2019-05-14T04:49:19.850Z,160
2019-05-14T04:50:20.043Z,164
2019-05-14T04:51:19.822Z,172
2019-05-14T04:52:20.416Z,172
2019-05-14T04:53:19.455Z,180
2019-05-14T04:54:19.380Z,180
2019-05-14T04:55:20.368Z,184
2019-05-14T04:56:19.503Z,188
2019-05-14T04:57:25.202Z,192
2019-05-14T04:58:21.535Z,196
2019-05-14T04:59:21.764Z,204
2019-05-14T05:00:22.523Z,208
2019-05-14T05:01:20.404Z,212
2019-05-14T05:02:19.721Z,216
2019-05-14T05:03:22.744Z,220
2019-05-14T05:04:20.160Z,224
2019-05-14T05:05:19.564Z,228
2019-05-14T05:06:21.657Z,232
2019-05-14T05:07:19.095Z,240
2019-05-14T05:08:22.597Z,236
2019-05-14T05:09:19.974Z,244
2019-05-14T05:10:19.236Z,244
2019-05-14T05:11:21.143Z,252
2019-05-14T05:12:19.644Z,252
2019-05-14T05:13:18.418Z,260
2019-05-14T05:14:19.098Z,260
2019-05-14T05:15:19.714Z,264
2019-05-14T05:16:19.173Z,268
2019-05-14T05:17:19.552Z,276
2019-05-14T05:18:18.562Z,280
2019-05-14T05:19:19.599Z,284
2019-05-14T05:20:19.283Z,292
2019-05-14T05:21:18.613Z,296
2019-05-14T05:22:15.954Z,300
2019-05-14T05:23:16.327Z,304
2019-05-14T05:24:18.373Z,308
2019-05-14T05:25:18.284Z,316
2019-05-14T05:26:18.407Z,320
2019-05-14T05:27:18.419Z,324
2019-05-14T05:28:18.662Z,328
2019-05-14T05:29:18.660Z,336
2019-05-14T05:30:18.772Z,340
2019-05-14T05:31:18.485Z,340
2019-05-14T05:32:19.101Z,344
2019-05-14T05:33:18.732Z,352
2019-05-14T05:34:18.588Z,360
2019-05-14T05:35:18.584Z,360
2019-05-14T05:36:18.450Z,368
2019-05-14T05:37:18.738Z,372
2019-05-14T05:38:18.338Z,380
2019-05-14T05:39:18.711Z,384
2019-05-14T05:40:19.372Z,388
2019-05-14T05:41:18.897Z,392
2019-05-14T05:42:18.754Z,400
2019-05-14T05:43:18.934Z,404
2019-05-14T05:44:18.536Z,408
2019-05-14T05:45:18.339Z,416
2019-05-14T05:46:18.793Z,424
2019-05-14T05:47:18.208Z,432
2019-05-14T05:48:18.204Z,444
2019-05-14T05:49:18.494Z,448
2019-05-14T05:50:19.100Z,456
2019-05-14T05:51:18.649Z,464
2019-05-14T05:52:18.890Z,468
2019-05-14T05:53:19.239Z,472
2019-05-14T05:54:18.458Z,480
2019-05-14T05:55:18.970Z,488
2019-05-14T05:56:18.632Z,492
2019-05-14T05:57:18.715Z,504
2019-05-14T05:58:19.493Z,508
2019-05-14T05:59:18.930Z,516
2019-05-14T06:00:18.894Z,528
2019-05-14T06:01:19.502Z,536
2019-05-14T06:02:18.555Z,544
2019-05-14T06:03:23.369Z,552
2019-05-14T06:04:18.112Z,564
2019-05-14T06:05:18.513Z,576
2019-05-14T06:06:22.219Z,588
2019-05-14T06:07:18.307Z,600
2019-05-14T06:08:18.702Z,608
2019-05-14T06:09:18.189Z,620
2019-05-14T06:10:15.895Z,644
2019-05-14T06:11:19.098Z,716
2019-05-14T06:12:18.962Z,808
2019-05-14T06:13:20.942Z,928
2019-05-14T06:14:18.454Z,1160
2019-05-14T06:15:21.749Z,1436
2019-05-14T06:16:18.566Z,1600
2019-05-14T06:17:18.871Z,1800
2019-05-14T06:18:28.511Z,1996
2019-05-14T06:19:18.317Z,2048
2019-05-14T06:20:18.771Z,2172
2019-05-14T06:21:18.955Z,2608
2019-05-14T06:22:18.788Z,3000
2019-05-14T06:23:18.720Z,3080
2019-05-14T06:24:19.278Z,3112
2019-05-14T06:25:23.438Z,3124
2019-05-14T06:26:21.884Z,3144
2019-05-14T06:27:18.121Z,3108
2019-05-14T06:28:20.503Z,3128
2019-05-14T06:29:18.488Z,3108
2019-05-14T06:30:18.283Z,3084
2019-05-14T06:31:19.153Z,3080
2019-05-14T06:32:18.613Z,3000
2019-05-14T06:33:19.494Z,2948
2019-05-14T06:34:18.606Z,2908
2019-05-14T06:35:19.152Z,2900
2019-05-14T06:36:22.345Z,2872
2019-05-14T06:37:18.856Z,2852
2019-05-14T06:38:18.485Z,2832
2019-05-14T06:39:18.228Z,2776
2019-05-14T06:40:19.086Z,2724
2019-05-14T06:41:18.807Z,2648
2019-05-14T06:42:19.174Z,2584
2019-05-14T06:43:18.935Z,2540
2019-05-14T06:44:18.628Z,2488
2019-05-14T06:45:18.648Z,2464
2019-05-14T06:46:19.168Z,2440
2019-05-14T06:47:18.394Z,2424
2019-05-14T06:48:39.280Z,2396
2019-05-14T06:49:18.291Z,2388
2019-05-14T06:50:18.835Z,2400
2019-05-14T06:51:19.523Z,2392
2019-05-14T06:52:18.689Z,2396
2019-05-14T06:53:16.375Z,2412
2019-05-14T06:54:19.580Z,2432
2019-05-14T06:55:18.006Z,2440
2019-05-14T06:56:18.664Z,2448
2019-05-14T06:57:18.020Z,2464
2019-05-14T06:58:20.098Z,2472
2019-05-14T06:59:18.096Z,2484
2019-05-14T07:00:18.799Z,2500
2019-05-14T07:01:18.476Z,2528
2019-05-14T07:02:19.123Z,2540
2019-05-14T07:03:17.975Z,2556
2019-05-14T07:04:18.151Z,2576
2019-05-14T07:05:18.655Z,2620
2019-05-14T07:06:18.548Z,2640
2019-05-14T07:07:16.435Z,2660
2019-05-14T07:08:18.757Z,2676
2019-05-14T07:09:18.011Z,2688
2019-05-14T07:10:19.412Z,2712
2019-05-14T07:11:18.871Z,2724
2019-05-14T07:12:19.097Z,2736
2019-05-14T07:13:18.683Z,2744
2019-05-14T07:14:21.554Z,2748
2019-05-14T07:15:18.189Z,2772
2019-05-14T07:16:19.447Z,2812
2019-05-14T07:17:18.234Z,2812
2019-05-14T07:18:18.952Z,2824
2019-05-14T07:19:19.114Z,2836
2019-05-14T07:20:18.566Z,2852
2019-05-14T07:21:18.445Z,2884
2019-05-14T07:22:19.340Z,2900
2019-05-14T07:23:19.182Z,2928
2019-05-14T07:24:19.412Z,2936
2019-05-14T07:25:18.348Z,2952
2019-05-14T07:26:19.258Z,2936
2019-05-14T07:27:24.629Z,2640
2019-05-14T07:28:21.982Z,2936
2019-05-14T07:29:24.846Z,2956
2019-05-14T07:30:19.571Z,3044
2019-05-14T07:31:18.542Z,3068
2019-05-14T07:32:19.085Z,3088
2019-05-14T07:33:18.267Z,3076
2019-05-14T07:34:18.742Z,3072
2019-05-14T07:35:20.819Z,2992
2019-05-14T07:36:21.965Z,3064
2019-05-14T07:37:20.788Z,3060
2019-05-14T07:38:20.115Z,3084
2019-05-14T07:39:19.985Z,3040
2019-05-14T07:40:18.958Z,3152
2019-05-14T07:41:19.180Z,3136
2019-05-14T07:42:19.097Z,3204
2019-05-14T07:43:18.848Z,3172
2019-05-14T07:44:20.793Z,3176
2019-05-14T07:45:21.148Z,3240
2019-05-14T07:46:21.906Z,3288
2019-05-14T07:47:20.166Z,3280
2019-05-14T07:48:21.165Z,3304
2019-05-14T07:49:23.895Z,3380
2019-05-14T07:50:19.403Z,3428
2019-05-14T07:51:18.947Z,3424
2019-05-14T07:52:19.674Z,3440
2019-05-14T07:53:33.921Z,3448
2019-05-14T07:54:22.210Z,3428
2019-05-14T07:55:21.863Z,2764
2019-05-14T07:56:22.691Z,3220
2019-05-14T07:57:31.188Z,548
2019-05-14T07:58:19.242Z,1276
2019-05-14T07:59:18.060Z,3236
2019-05-14T08:00:18.975Z,3232
2019-05-14T08:01:18.679Z,3296
2019-05-14T08:02:22.266Z,3248
2019-05-14T08:03:21.727Z,3176
2019-05-14T08:04:25.062Z,464
2019-05-14T08:05:21.771Z,3000
2019-05-14T08:06:19.273Z,3052
2019-05-14T08:07:17.931Z,3004
2019-05-14T08:08:18.550Z,2912
2019-05-14T08:09:18.798Z,2772
2019-05-14T08:10:18.555Z,2708
2019-05-14T08:11:19.073Z,2660
2019-05-14T08:12:23.056Z,2584
2019-05-14T08:13:18.591Z,2552
2019-05-14T08:14:18.481Z,2512
2019-05-14T08:15:28.019Z,2468
2019-05-14T08:16:18.622Z,2436
2019-05-14T08:17:18.963Z,2404
2019-05-14T08:18:18.819Z,2376
2019-05-14T08:19:38.506Z,2360
2019-05-14T08:20:18.281Z,2348
2019-05-14T08:21:16.325Z,2308
2019-05-14T08:22:18.600Z,2268
2019-05-14T08:23:18.377Z,2240
2019-05-14T08:24:27.033Z,2232
2019-05-14T08:25:16.452Z,2216
2019-05-14T08:26:15.948Z,2208
2019-05-14T08:27:34.899Z,2276
2019-05-14T08:28:18.074Z,1568
2019-05-14T08:29:18.065Z,852
2019-05-14T08:30:18.690Z,1896
2019-05-14T08:31:18.614Z,848
2019-05-14T08:32:18.902Z,792
2019-05-14T08:33:18.384Z,2100
2019-05-14T08:34:19.111Z,2092
2019-05-14T08:35:18.516Z,2088
2019-05-14T08:36:18.328Z,2076
2019-05-14T08:37:16.200Z,2064
2019-05-14T08:38:21.168Z,2052
2019-05-14T08:39:18.522Z,2032
2019-05-14T08:40:23.621Z,2036
2019-05-14T08:41:16.374Z,2032
2019-05-14T08:42:18.537Z,2028
2019-05-14T08:43:18.445Z,2020
2019-05-14T08:44:16.482Z,2032
2019-05-14T08:45:21.630Z,2084
2019-05-14T08:46:19.062Z,2104
2019-05-14T08:47:18.314Z,2120
2019-05-14T08:48:21.562Z,1648
2019-05-14T08:49:18.479Z,2056
2019-05-14T08:50:24.141Z,2056
2019-05-14T08:51:18.586Z,2064
2019-05-14T08:52:19.257Z,484
2019-05-14T08:53:19.184Z,464
2019-05-14T08:54:18.452Z,484
2019-05-14T08:55:23.558Z,540
2019-05-14T08:56:19.084Z,2112
2019-05-14T08:57:29.096Z,1828
2019-05-14T08:58:25.457Z,760
2019-05-14T08:59:19.306Z,1944
2019-05-14T09:00:23.552Z,1992
2019-05-14T09:01:19.176Z,436
2019-05-14T09:02:19.551Z,1832
2019-05-14T09:03:19.025Z,2064
2019-05-14T09:04:21.635Z,504
2019-05-14T09:05:20.913Z,436
2019-05-14T09:06:18.519Z,460
2019-05-14T09:07:18.493Z,532
2019-05-14T09:08:18.944Z,612
2019-05-14T09:09:18.214Z,540
2019-05-14T09:10:19.054Z,2032
2019-05-14T09:11:24.013Z,1600
2019-05-14T09:12:21.536Z,2028
2019-05-14T09:13:18.369Z,2048
2019-05-14T09:14:21.430Z,528
2019-05-14T09:15:18.548Z,552
2019-05-14T09:16:19.390Z,2064
2019-05-14T09:17:21.225Z,2040
2019-05-14T09:18:21.124Z,1732
2019-05-14T09:19:19.076Z,1752
2019-05-14T09:20:21.594Z,532
2019-05-14T09:21:16.625Z,492
2019-05-14T09:22:18.428Z,528
2019-05-14T09:23:18.936Z,620
2019-05-14T09:24:18.180Z,536
2019-05-14T09:25:18.710Z,1884
2019-05-14T09:26:18.084Z,952
2019-05-14T09:28:18.795Z,1884
2019-05-14T09:29:32.569Z,552
2019-05-14T09:30:18.582Z,1392
2019-05-14T09:31:19.056Z,1840
2019-05-14T09:32:19.011Z,1832
2019-05-14T09:33:18.581Z,1968
2019-05-14T09:34:19.269Z,1736
2019-05-14T09:35:18.764Z,1560
2019-05-14T09:36:31.674Z,1668
2019-05-14T09:37:19.207Z,2132
2019-05-14T09:38:18.774Z,1324
2019-05-14T09:39:21.412Z,2048
2019-05-14T09:40:19.387Z,1288
2019-05-14T09:41:23.884Z,2044
2019-05-14T09:42:19.203Z,532
2019-05-14T09:43:18.061Z,540
2019-05-14T09:44:18.656Z,2040
2019-05-14T09:45:18.992Z,2040
2019-05-14T09:46:18.463Z,2024
2019-05-14T09:47:18.720Z,2044
2019-05-14T09:48:18.031Z,1272
2019-05-14T09:49:15.910Z,780
2019-05-14T09:50:31.646Z,628
2019-05-14T09:51:18.399Z,612
2019-05-14T09:52:18.620Z,584
2019-05-14T09:53:18.122Z,604
2019-05-14T09:54:18.894Z,2076
2019-05-14T09:55:18.124Z,2068
2019-05-14T09:56:18.572Z,2056
2019-05-14T09:57:28.146Z,2012
2019-05-14T09:58:19.556Z,2032
2019-05-14T09:59:18.502Z,2028
2019-05-14T10:00:21.374Z,2008
2019-05-14T10:01:19.101Z,1724
2019-05-14T10:02:17.125Z,456
2019-05-14T10:03:19.159Z,432
2019-05-14T10:04:17.034Z,432
2019-05-14T10:05:18.855Z,440
2019-05-14T10:06:20.235Z,1200
2019-05-14T10:07:20.642Z,2088
2019-05-14T10:08:19.115Z,2092
2019-05-14T10:09:16.523Z,2124
2019-05-14T10:10:19.353Z,580
2019-05-14T10:11:15.813Z,512
2019-05-14T10:12:17.171Z,512
2019-05-14T10:13:17.591Z,500
2019-05-14T10:14:15.940Z,492
2019-05-14T10:15:16.718Z,476
2019-05-14T10:16:18.803Z,488
2019-05-14T10:17:19.126Z,476
2019-05-14T10:18:21.697Z,460
2019-05-14T10:19:18.449Z,452
2019-05-14T10:20:35.383Z,448
2019-05-14T10:21:18.911Z,464
2019-05-14T10:22:19.066Z,524
2019-05-14T10:23:18.843Z,656
2019-05-14T10:24:18.547Z,2268
2019-05-14T10:25:18.145Z,1764
2019-05-14T10:26:18.506Z,2324
2019-05-14T10:27:18.923Z,948
2019-05-14T10:28:18.965Z,676
2019-05-14T10:29:18.962Z,636
2019-05-14T10:30:21.009Z,596
2019-05-14T10:31:21.057Z,604
2019-05-14T10:32:18.613Z,596
2019-05-14T10:33:23.550Z,1204
2019-05-14T10:34:16.263Z,2136
2019-05-14T10:35:18.984Z,2108
2019-05-14T10:36:19.298Z,544
2019-05-14T10:37:18.947Z,488
2019-05-14T10:38:18.926Z,512
2019-05-14T10:39:19.120Z,536
2019-05-14T10:40:21.011Z,576
2019-05-14T10:41:18.308Z,2128
2019-05-14T10:42:19.767Z,604
2019-05-14T10:43:18.860Z,520
2019-05-14T10:44:18.672Z,556
2019-05-14T10:45:21.318Z,564
2019-05-14T10:46:18.871Z,1160
2019-05-14T10:47:18.697Z,2148
2019-05-14T10:48:18.538Z,2140
2019-05-14T10:49:32.462Z,680
2019-05-14T10:50:23.450Z,2100
2019-05-14T10:51:18.149Z,716
2019-05-14T10:52:18.937Z,1976
2019-05-14T10:53:16.922Z,1968
2019-05-14T10:54:33.885Z,1924
2019-05-14T10:55:15.946Z,1936
2019-05-14T10:56:19.028Z,1936
2019-05-14T10:57:18.274Z,1952
2019-05-14T10:58:19.437Z,1960
2019-05-14T10:59:18.388Z,1964
2019-05-14T11:00:18.591Z,1936
2019-05-14T11:01:25.081Z,1924
2019-05-14T11:02:21.301Z,1916
2019-05-14T11:03:18.439Z,1928
2019-05-14T11:04:15.947Z,1956
2019-05-14T11:05:15.917Z,1980
2019-05-14T11:06:21.454Z,2016
2019-05-14T11:07:18.403Z,2052
2019-05-14T11:08:21.630Z,1760
2019-05-14T11:09:18.015Z,2128
2019-05-14T11:10:19.346Z,1032
2019-05-14T11:11:21.110Z,2048
2019-05-14T11:12:19.192Z,860
2019-05-14T11:13:18.783Z,540
2019-05-14T11:14:19.194Z,500
2019-05-14T11:15:15.939Z,476
2019-05-14T11:16:18.764Z,468
2019-05-14T11:17:23.183Z,472
2019-05-14T11:18:19.351Z,492
2019-05-14T11:19:18.737Z,508
2019-05-14T11:20:15.972Z,888
2019-05-14T11:21:34.424Z,544
2019-05-14T11:22:18.393Z,588
2019-05-14T11:23:18.400Z,668
2019-05-14T11:24:18.737Z,588
2019-05-14T11:25:19.419Z,2048
2019-05-14T11:26:18.405Z,2052
2019-05-14T11:27:18.427Z,2064
2019-05-14T11:28:18.916Z,852
2019-05-14T11:29:18.278Z,1804
2019-05-14T11:30:19.243Z,1876
2019-05-14T11:31:19.000Z,2024
2019-05-14T11:32:18.386Z,2016
2019-05-14T11:33:18.683Z,608
2019-05-14T11:34:19.013Z,540
2019-05-14T11:35:21.887Z,564
2019-05-14T11:36:18.718Z,580
2019-05-14T11:37:18.625Z,536
2019-05-14T11:38:42.650Z,2000
2019-05-14T11:39:18.046Z,2020
2019-05-14T11:40:18.894Z,2052
2019-05-14T11:41:18.565Z,1472
2019-05-14T11:42:16.733Z,2112
2019-05-14T11:43:16.418Z,2108
2019-05-14T11:44:17.052Z,2096
2019-05-14T11:45:17.043Z,2008
2019-05-14T11:46:24.926Z,880
2019-05-14T11:47:18.113Z,656
2019-05-14T11:48:19.238Z,724
2019-05-14T11:49:19.109Z,772
2019-05-14T11:50:19.110Z,996
2019-05-14T11:51:18.927Z,1416
2019-05-14T11:52:20.746Z,1396
2019-05-14T11:53:19.755Z,708
2019-05-14T11:54:18.391Z,728
2019-05-14T11:55:18.669Z,2140
2019-05-14T11:56:19.048Z,2072
2019-05-14T11:57:21.973Z,2068
2019-05-14T11:58:20.553Z,2044
2019-05-14T11:59:18.757Z,2016
2019-05-14T12:00:19.297Z,2012
2019-05-14T12:01:18.806Z,2028
2019-05-14T12:02:18.822Z,548
2019-05-14T12:03:19.313Z,620
2019-05-14T12:04:18.755Z,724
2019-05-14T12:05:18.894Z,2236
2019-05-14T12:06:18.511Z,1160
2019-05-14T12:07:18.609Z,884
2019-05-14T12:08:18.518Z,784
2019-05-14T12:09:21.574Z,752
2019-05-14T12:10:18.712Z,756
2019-05-14T12:11:19.141Z,824
2019-05-14T12:12:21.757Z,808
2019-05-14T12:13:19.128Z,844
2019-05-14T12:14:18.952Z,996
2019-05-14T12:15:18.686Z,920
2019-05-14T12:16:16.503Z,952
2019-05-14T12:17:17.351Z,780
2019-05-14T12:18:18.634Z,772
2019-05-14T12:19:21.661Z,824
2019-05-14T12:20:16.043Z,796
2019-05-14T12:21:16.829Z,780
2019-05-14T12:22:21.763Z,2240
2019-05-14T12:23:18.974Z,1212
2019-05-14T12:24:23.598Z,1732
2019-05-14T12:25:18.579Z,1224
2019-05-14T12:26:19.045Z,2144
2019-05-14T12:27:18.954Z,760
2019-05-14T12:28:24.311Z,872
2019-05-14T12:29:18.034Z,708
2019-05-14T12:30:19.629Z,2116
2019-05-14T12:31:17.269Z,2064
2019-05-14T12:32:21.570Z,1136
2019-05-14T12:33:18.759Z,2040
2019-05-14T12:34:18.349Z,2048
2019-05-14T12:35:19.648Z,1500
2019-05-14T12:36:21.950Z,1600
2019-05-14T12:37:18.516Z,2140
2019-05-14T12:38:18.700Z,652
2019-05-14T12:39:18.714Z,600
2019-05-14T12:40:19.161Z,608
2019-05-14T12:41:19.272Z,644
2019-05-14T12:42:21.904Z,1740
2019-05-14T12:43:18.720Z,2040
2019-05-14T12:44:19.519Z,1568
2019-05-14T12:45:18.995Z,2224
2019-05-14T12:46:20.038Z,820
2019-05-14T12:47:18.756Z,772
2019-05-14T12:48:18.732Z,784
2019-05-14T12:49:21.378Z,836
2019-05-14T12:50:17.263Z,2216
2019-05-14T12:51:18.539Z,1796
2019-05-14T12:52:34.840Z,916
2019-05-14T12:53:19.693Z,936
2019-05-14T12:54:19.701Z,772
2019-05-14T12:55:19.241Z,640
2019-05-14T12:56:18.748Z,604
2019-05-14T12:57:18.768Z,596
2019-05-14T12:58:16.113Z,612
2019-05-14T12:59:16.423Z,628
2019-05-14T13:00:16.863Z,668
2019-05-14T13:01:19.843Z,592
2019-05-14T13:02:18.707Z,592
2019-05-14T13:03:18.974Z,612
2019-05-14T13:04:19.864Z,612
2019-05-14T13:05:18.302Z,636
2019-05-14T13:06:19.018Z,700
2019-05-14T13:07:19.043Z,868
2019-05-14T13:08:21.077Z,800
2019-05-14T13:09:21.644Z,752
2019-05-14T13:12:24.232Z,624
2019-05-14T13:12:38.999Z,620
2019-05-14T13:13:42.261Z,604
2019-05-14T13:14:36.200Z,556
2019-05-14T13:15:39.055Z,532
2019-05-14T13:16:39.458Z,528
2019-05-14T13:17:38.778Z,560
2019-05-14T13:18:38.620Z,620
2019-05-14T13:19:37.954Z,724
2019-05-14T13:20:38.843Z,1916
2019-05-14T13:21:38.882Z,1840
2019-05-14T13:22:53.323Z,1696
2019-05-14T13:23:38.278Z,1876
2019-05-14T13:24:39.488Z,888
2019-05-14T13:25:42.095Z,936
2019-05-14T13:26:38.970Z,880
2019-05-14T13:27:39.101Z,1328
2019-05-14T13:28:39.244Z,700
2019-05-14T13:29:36.868Z,620
2019-05-14T13:30:38.357Z,564
2019-05-14T13:31:37.320Z,552
2019-05-14T13:32:39.036Z,512
2019-05-14T13:33:39.007Z,448
2019-05-14T13:34:39.530Z,408
2019-05-14T13:35:38.880Z,380
2019-05-14T13:36:39.457Z,376
2019-05-14T13:37:39.523Z,400
2019-05-14T13:38:35.291Z,1388
2019-05-14T13:39:39.578Z,1708
2019-05-14T13:40:38.930Z,1764
2019-05-14T13:41:41.478Z,604
2019-05-14T13:42:39.481Z,560
2019-05-14T13:43:41.485Z,848
2019-05-14T13:44:38.465Z,640
2019-05-14T13:45:39.067Z,612
2019-05-14T13:46:36.540Z,620
2019-05-14T13:47:38.661Z,604
2019-05-14T13:48:43.272Z,592
2019-05-14T13:49:39.041Z,524
2019-05-14T13:50:39.957Z,480
2019-05-14T13:51:43.940Z,488
2019-05-14T13:52:38.994Z,516
2019-05-14T13:53:38.986Z,552
2019-05-14T13:54:42.072Z,560
2019-05-14T13:55:45.439Z,544
2019-05-14T13:56:36.230Z,504
2019-05-14T13:57:39.384Z,456
2019-05-14T13:58:36.737Z,400
2019-05-14T13:59:35.287Z,352
2019-05-14T14:00:35.375Z,312
2019-05-14T14:01:37.665Z,276
2019-05-14T14:02:39.003Z,248
2019-05-14T14:03:46.412Z,224
2019-05-14T14:04:35.340Z,204
2019-05-14T14:05:35.361Z,216
2019-05-14T14:06:35.389Z,252
2019-05-14T14:07:35.313Z,292
2019-05-14T14:08:41.886Z,336
2019-05-14T14:09:39.438Z,376
2019-05-14T14:11:01.940Z,416
2019-05-14T14:11:41.040Z,444
2019-05-14T14:12:43.173Z,480
2019-05-14T14:13:39.238Z,528
2019-05-14T14:14:38.580Z,864